sensor_id;sensor_type;location;lat;lon;timestamp;pressure;altitude;pressure_sealevel;temperature;humidity
71778;BME280;59609;52.430;4.668;2022-10-16T00:00:40;100940.44;;;13.81;94.69
71778;BME280;59609;52.430;4.668;2022-10-16T00:03:06;100936.22;;;13.85;93.68
71778;BME280;59609;52.430;4.668;2022-10-16T00:05:32;100932.16;;;13.96;94.02
71778;BME280;59609;52.430;4.668;2022-10-16T00:07:57;100939.56;;;14.03;93.46
71778;BME280;59609;52.430;4.668;2022-10-16T00:10:23;100939.44;;;13.97;93.46
71778;BME280;59609;52.430;4.668;2022-10-16T00:12:49;100953.09;;;13.98;93.24
71778;BME280;59609;52.430;4.668;2022-10-16T00:15:15;100941.22;;;13.89;94.65
71778;BME280;59609;52.430;4.668;2022-10-16T00:17:40;100951.81;;;13.86;94.85
71778;BME280;59609;52.430;4.668;2022-10-16T00:20:06;100955.88;;;13.75;95.57
71778;BME280;59609;52.430;4.668;2022-10-16T00:22:32;100953.09;;;13.75;95.67
71778;BME280;59609;52.430;4.668;2022-10-16T00:24:57;100948.13;;;13.71;95.73
71778;BME280;59609;52.430;4.668;2022-10-16T00:27:23;100956.75;;;13.76;94.72
71778;BME280;59609;52.430;4.668;2022-10-16T00:29:52;100958.28;;;13.78;94.90
71778;BME280;59609;52.430;4.668;2022-10-16T00:32:18;100947.41;;;13.77;94.45
71778;BME280;59609;52.430;4.668;2022-10-16T00:34:44;100941.91;;;13.69;95.80
71778;BME280;59609;52.430;4.668;2022-10-16T00:37:10;100931.94;;;13.60;95.77
71778;BME280;59609;52.430;4.668;2022-10-16T00:39:35;100926.66;;;13.50;96.73
71778;BME280;59609;52.430;4.668;2022-10-16T00:42:01;100934.63;;;13.45;96.77
71778;BME280;59609;52.430;4.668;2022-10-16T00:44:56;100933.91;;;13.51;95.57
71778;BME280;59609;52.430;4.668;2022-10-16T00:47:40;100932.44;;;13.63;93.98
71778;BME280;59609;52.430;4.668;2022-10-16T00:52:36;100946.41;;;13.70;92.72
71778;BME280;59609;52.430;4.668;2022-10-16T00:55:03;100937.72;;;13.73;91.46
71778;BME280;59609;52.430;4.668;2022-10-16T00:57:29;100954.13;;;13.74;91.07
71778;BME280;59609;52.430;4.668;2022-10-16T00:59:55;100956.19;;;13.80;90.70
71778;BME280;59609;52.430;4.668;2022-10-16T01:02:21;100957.34;;;13.86;89.55
71778;BME280;59609;52.430;4.668;2022-10-16T01:04:49;100961.59;;;13.97;88.71
71778;BME280;59609;52.430;4.668;2022-10-16T01:10:38;100963.06;;;13.84;89.44
71778;BME280;59609;52.430;4.668;2022-10-16T01:15:55;100961.09;;;13.93;88.58
71778;BME280;59609;52.430;4.668;2022-10-16T01:18:39;100962.59;;;13.81;89.47
71778;BME280;59609;52.430;4.668;2022-10-16T01:21:22;100962.22;;;13.84;88.96
71778;BME280;59609;52.430;4.668;2022-10-16T01:24:06;100960.38;;;13.76;89.48
71778;BME280;59609;52.430;4.668;2022-10-16T01:29:29;100952.97;;;13.69;90.02
71778;BME280;59609;52.430;4.668;2022-10-16T01:32:03;100960.06;;;13.71;90.00
71778;BME280;59609;52.430;4.668;2022-10-16T01:34:38;100949.97;;;13.78;89.54
71778;BME280;59609;52.430;4.668;2022-10-16T01:37:11;100950.09;;;13.62;90.30
71778;BME280;59609;52.430;4.668;2022-10-16T01:39:39;100952.50;;;13.65;90.04
71778;BME280;59609;52.430;4.668;2022-10-16T01:42:13;100955.75;;;13.69;90.15
71778;BME280;59609;52.430;4.668;2022-10-16T01:44:40;100947.06;;;13.72;89.71
71778;BME280;59609;52.430;4.668;2022-10-16T01:47:09;100954.09;;;13.82;89.42
71778;BME280;59609;52.430;4.668;2022-10-16T01:49:38;100956.63;;;13.69;90.17
71778;BME280;59609;52.430;4.668;2022-10-16T01:52:11;100962.19;;;13.61;90.68
71778;BME280;59609;52.430;4.668;2022-10-16T01:54:40;100960.25;;;13.70;90.18
71778;BME280;59609;52.430;4.668;2022-10-16T01:57:08;100965.91;;;13.76;90.23
71778;BME280;59609;52.430;4.668;2022-10-16T01:59:38;100966.09;;;13.75;90.37
71778;BME280;59609;52.430;4.668;2022-10-16T02:02:08;100972.59;;;13.82;90.43
71778;BME280;59609;52.430;4.668;2022-10-16T02:04:39;100968.31;;;13.79;90.85
71778;BME280;59609;52.430;4.668;2022-10-16T02:07:07;100967.31;;;13.72;91.47
71778;BME280;59609;52.430;4.668;2022-10-16T02:09:34;100968.34;;;13.71;91.23
71778;BME280;59609;52.430;4.668;2022-10-16T02:12:25;100975.50;;;13.66;92.36
71778;BME280;59609;52.430;4.668;2022-10-16T02:14:47;100980.03;;;13.59;92.65
71778;BME280;59609;52.430;4.668;2022-10-16T02:17:15;100969.84;;;13.59;92.96
71778;BME280;59609;52.430;4.668;2022-10-16T02:19:41;100974.88;;;13.56;93.48
71778;BME280;59609;52.430;4.668;2022-10-16T02:22:10;100968.22;;;13.42;94.61
71778;BME280;59609;52.430;4.668;2022-10-16T02:27:34;100979.06;;;13.52;94.88
71778;BME280;59609;52.430;4.668;2022-10-16T02:33:10;100979.66;;;13.39;96.17
71778;BME280;59609;52.430;4.668;2022-10-16T02:35:40;100983.28;;;13.39;96.32
71778;BME280;59609;52.430;4.668;2022-10-16T02:38:06;100986.56;;;13.43;96.39
71778;BME280;59609;52.430;4.668;2022-10-16T02:40:33;100990.84;;;13.46;96.98
71778;BME280;59609;52.430;4.668;2022-10-16T02:42:58;100986.56;;;13.43;96.85
71778;BME280;59609;52.430;4.668;2022-10-16T02:45:24;100984.78;;;13.50;96.79
71778;BME280;59609;52.430;4.668;2022-10-16T02:47:50;100983.25;;;13.48;96.47
71778;BME280;59609;52.430;4.668;2022-10-16T02:50:15;100985.16;;;13.47;97.13
71778;BME280;59609;52.430;4.668;2022-10-16T02:52:42;100998.34;;;13.37;97.27
71778;BME280;59609;52.430;4.668;2022-10-16T02:55:07;100991.09;;;13.36;97.99
71778;BME280;59609;52.430;4.668;2022-10-16T02:57:33;101004.41;;;13.40;97.78
71778;BME280;59609;52.430;4.668;2022-10-16T02:59:58;101004.03;;;13.44;97.83
71778;BME280;59609;52.430;4.668;2022-10-16T03:02:24;101003.91;;;13.37;98.66
71778;BME280;59609;52.430;4.668;2022-10-16T03:04:50;101011.19;;;13.30;99.36
71778;BME280;59609;52.430;4.668;2022-10-16T03:07:15;101016.31;;;13.41;98.72
71778;BME280;59609;52.430;4.668;2022-10-16T03:09:41;101015.78;;;13.46;98.83
71778;BME280;59609;52.430;4.668;2022-10-16T03:12:06;101015.97;;;13.44;98.73
71778;BME280;59609;52.430;4.668;2022-10-16T03:14:32;101020.81;;;13.42;99.47
71778;BME280;59609;52.430;4.668;2022-10-16T03:16:57;101026.53;;;13.40;99.58
71778;BME280;59609;52.430;4.668;2022-10-16T03:19:22;101028.44;;;13.40;99.74
71778;BME280;59609;52.430;4.668;2022-10-16T03:21:48;101024.97;;;13.38;100.00
71778;BME280;59609;52.430;4.668;2022-10-16T03:24:13;101031.06;;;13.33;100.00
71778;BME280;59609;52.430;4.668;2022-10-16T03:26:38;101026.19;;;13.35;100.00
71778;BME280;59609;52.430;4.668;2022-10-16T03:29:04;101026.72;;;13.31;100.00
71778;BME280;59609;52.430;4.668;2022-10-16T03:31:30;101031.94;;;13.34;100.00
71778;BME280;59609;52.430;4.668;2022-10-16T03:33:56;101022.44;;;13.28;100.00
71778;BME280;59609;52.430;4.668;2022-10-16T03:36:21;101019.50;;;13.30;100.00
71778;BME280;59609;52.430;4.668;2022-10-16T03:38:47;101019.34;;;13.23;100.00
71778;BME280;59609;52.430;4.668;2022-10-16T03:41:12;101023.16;;;13.14;100.00
71778;BME280;59609;52.430;4.668;2022-10-16T03:43:38;101028.88;;;13.21;100.00
71778;BME280;59609;52.430;4.668;2022-10-16T03:46:03;101029.56;;;13.23;100.00
71778;BME280;59609;52.430;4.668;2022-10-16T03:48:29;101033.00;;;13.25;100.00
71778;BME280;59609;52.430;4.668;2022-10-16T03:50:54;101037.19;;;13.21;100.00
71778;BME280;59609;52.430;4.668;2022-10-16T03:53:20;101035.44;;;13.20;100.00
71778;BME280;59609;52.430;4.668;2022-10-16T03:55:45;101037.13;;;13.29;100.00
71778;BME280;59609;52.430;4.668;2022-10-16T03:58:11;101040.09;;;13.27;100.00
71778;BME280;59609;52.430;4.668;2022-10-16T04:00:46;101054.41;;;13.31;100.00
71778;BME280;59609;52.430;4.668;2022-10-16T04:03:12;101058.03;;;13.31;100.00
71778;BME280;59609;52.430;4.668;2022-10-16T04:05:38;101056.13;;;13.32;100.00
71778;BME280;59609;52.430;4.668;2022-10-16T04:08:04;101052.50;;;13.31;100.00
71778;BME280;59609;52.430;4.668;2022-10-16T04:10:29;101041.28;;;13.25;100.00
71778;BME280;59609;52.430;4.668;2022-10-16T04:12:54;101042.34;;;13.24;100.00
71778;BME280;59609;52.430;4.668;2022-10-16T04:15:22;101043.56;;;13.21;100.00
71778;BME280;59609;52.430;4.668;2022-10-16T04:17:47;101042.22;;;13.17;100.00
71778;BME280;59609;52.430;4.668;2022-10-16T04:20:12;101042.34;;;13.24;100.00
71778;BME280;59609;52.430;4.668;2022-10-16T04:22:38;101043.56;;;13.21;100.00
71778;BME280;59609;52.430;4.668;2022-10-16T04:25:04;101051.31;;;13.26;100.00
71778;BME280;59609;52.430;4.668;2022-10-16T04:27:30;101044.09;;;13.17;100.00
71778;BME280;59609;52.430;4.668;2022-10-16T04:29:57;101051.00;;;13.21;100.00
71778;BME280;59609;52.430;4.668;2022-10-16T04:32:22;101054.75;;;13.28;100.00
71778;BME280;59609;52.430;4.668;2022-10-16T04:34:47;101051.84;;;13.29;100.00
71778;BME280;59609;52.430;4.668;2022-10-16T04:37:13;101061.16;;;13.28;100.00
71778;BME280;59609;52.430;4.668;2022-10-16T04:39:38;101067.22;;;13.32;100.00
71778;BME280;59609;52.430;4.668;2022-10-16T04:42:04;101063.41;;;13.33;100.00
71778;BME280;59609;52.430;4.668;2022-10-16T04:44:29;101074.84;;;13.30;100.00
71778;BME280;59609;52.430;4.668;2022-10-16T04:46:55;101060.84;;;13.23;100.00
71778;BME280;59609;52.430;4.668;2022-10-16T04:49:20;101077.81;;;13.20;100.00
71778;BME280;59609;52.430;4.668;2022-10-16T04:51:45;101081.78;;;13.18;100.00
71778;BME280;59609;52.430;4.668;2022-10-16T04:54:11;101084.38;;;13.27;100.00
71778;BME280;59609;52.430;4.668;2022-10-16T04:56:36;101100.91;;;13.35;100.00
71778;BME280;59609;52.430;4.668;2022-10-16T04:59:09;101100.56;;;13.38;100.00
71778;BME280;59609;52.430;4.668;2022-10-16T05:01:34;101099.19;;;13.34;100.00
71778;BME280;59609;52.430;4.668;2022-10-16T05:03:59;101106.59;;;13.42;100.00
71778;BME280;59609;52.430;4.668;2022-10-16T05:06:25;101102.81;;;13.43;100.00
71778;BME280;59609;52.430;4.668;2022-10-16T05:08:50;101109.72;;;13.39;100.00
71778;BME280;59609;52.430;4.668;2022-10-16T05:11:16;101110.06;;;13.44;100.00
71778;BME280;59609;52.430;4.668;2022-10-16T05:13:41;101114.22;;;13.40;100.00
71778;BME280;59609;52.430;4.668;2022-10-16T05:16:06;101118.69;;;13.49;100.00
71778;BME280;59609;52.430;4.668;2022-10-16T05:18:32;101117.69;;;13.42;100.00
71778;BME280;59609;52.430;4.668;2022-10-16T05:20:57;101118.41;;;13.28;100.00
71778;BME280;59609;52.430;4.668;2022-10-16T05:23:22;101124.97;;;13.35;100.00
71778;BME280;59609;52.430;4.668;2022-10-16T05:25:58;101135.00;;;13.28;100.00
71778;BME280;59609;52.430;4.668;2022-10-16T05:28:24;101137.78;;;13.28;100.00
71778;BME280;59609;52.430;4.668;2022-10-16T05:30:50;101142.63;;;13.34;100.00
71778;BME280;59609;52.430;4.668;2022-10-16T05:33:15;101134.84;;;13.29;100.00
71778;BME280;59609;52.430;4.668;2022-10-16T05:35:41;101150.94;;;13.26;100.00
71778;BME280;59609;52.430;4.668;2022-10-16T05:38:06;101142.47;;;13.27;100.00
71778;BME280;59609;52.430;4.668;2022-10-16T05:40:31;101143.31;;;13.28;100.00
71778;BME280;59609;52.430;4.668;2022-10-16T05:42:57;101142.31;;;13.21;100.00
71778;BME280;59609;52.430;4.668;2022-10-16T05:45:22;101138.19;;;13.17;100.00
71778;BME280;59609;52.430;4.668;2022-10-16T05:47:47;101141.66;;;13.11;100.00
71778;BME280;59609;52.430;4.668;2022-10-16T05:50:13;101148.03;;;13.11;100.00
71778;BME280;59609;52.430;4.668;2022-10-16T05:52:38;101141.47;;;13.04;100.00
71778;BME280;59609;52.430;4.668;2022-10-16T05:55:04;101148.88;;;13.04;100.00
71778;BME280;59609;52.430;4.668;2022-10-16T05:57:29;101144.53;;;13.01;100.00
71778;BME280;59609;52.430;4.668;2022-10-16T05:59:55;101147.31;;;13.01;100.00
71778;BME280;59609;52.430;4.668;2022-10-16T06:02:20;101158.56;;;13.00;100.00
71778;BME280;59609;52.430;4.668;2022-10-16T06:04:45;101162.38;;;12.99;100.00
71778;BME280;59609;52.430;4.668;2022-10-16T06:07:11;101157.53;;;12.93;100.00
71778;BME280;59609;52.430;4.668;2022-10-16T06:09:36;101171.72;;;12.89;100.00
71778;BME280;59609;52.430;4.668;2022-10-16T06:12:02;101163.75;;;12.95;100.00
71778;BME280;59609;52.430;4.668;2022-10-16T06:14:27;101162.41;;;12.90;100.00
71778;BME280;59609;52.430;4.668;2022-10-16T06:16:52;101164.44;;;12.88;100.00
71778;BME280;59609;52.430;4.668;2022-10-16T06:19:18;101166.53;;;12.86;100.00
71778;BME280;59609;52.430;4.668;2022-10-16T06:21:43;101168.28;;;12.87;100.00
71778;BME280;59609;52.430;4.668;2022-10-16T06:24:09;101170.16;;;12.87;100.00
71778;BME280;59609;52.430;4.668;2022-10-16T06:26:34;101186.91;;;12.85;100.00
71778;BME280;59609;52.430;4.668;2022-10-16T06:29:00;101189.88;;;12.84;100.00
71778;BME280;59609;52.430;4.668;2022-10-16T06:31:26;101196.75;;;12.88;100.00
71778;BME280;59609;52.430;4.668;2022-10-16T06:33:54;101191.06;;;12.81;100.00
71778;BME280;59609;52.430;4.668;2022-10-16T06:36:21;101192.66;;;12.84;100.00
71778;BME280;59609;52.430;4.668;2022-10-16T06:38:46;101191.78;;;12.83;100.00
71778;BME280;59609;52.430;4.668;2022-10-16T06:41:14;101200.06;;;12.83;100.00
71778;BME280;59609;52.430;4.668;2022-10-16T06:43:40;101207.81;;;12.88;100.00
71778;BME280;59609;52.430;4.668;2022-10-16T06:46:07;101206.81;;;12.89;100.00
71778;BME280;59609;52.430;4.668;2022-10-16T06:48:35;101217.53;;;12.84;100.00
71778;BME280;59609;52.430;4.668;2022-10-16T06:51:02;101229.25;;;12.78;100.00
71778;BME280;59609;52.430;4.668;2022-10-16T06:53:31;101220.81;;;12.79;100.00
71778;BME280;59609;52.430;4.668;2022-10-16T06:55:57;101229.78;;;12.81;100.00
71778;BME280;59609;52.430;4.668;2022-10-16T06:58:22;101240.50;;;12.84;100.00
71778;BME280;59609;52.430;4.668;2022-10-16T07:00:47;101238.44;;;12.86;100.00
71778;BME280;59609;52.430;4.668;2022-10-16T07:03:13;101254.19;;;12.94;100.00
71778;BME280;59609;52.430;4.668;2022-10-16T07:05:40;101247.59;;;12.87;100.00
71778;BME280;59609;52.430;4.668;2022-10-16T07:08:06;101250.53;;;13.02;100.00
71778;BME280;59609;52.430;4.668;2022-10-16T07:10:32;101258.34;;;13.30;100.00
71778;BME280;59609;52.430;4.668;2022-10-16T07:12:58;101260.56;;;13.43;100.00
71778;BME280;59609;52.430;4.668;2022-10-16T07:15:24;101273.72;;;13.49;100.00
71778;BME280;59609;52.430;4.668;2022-10-16T07:17:50;101273.50;;;13.59;100.00
71778;BME280;59609;52.430;4.668;2022-10-16T07:20:16;101270.56;;;13.68;100.00
71778;BME280;59609;52.430;4.668;2022-10-16T07:22:41;101282.25;;;13.94;100.00
71778;BME280;59609;52.430;4.668;2022-10-16T07:25:07;101289.44;;;14.20;100.00
71778;BME280;59609;52.430;4.668;2022-10-16T07:27:32;101298.13;;;14.09;100.00
71778;BME280;59609;52.430;4.668;2022-10-16T07:29:57;101305.66;;;13.84;100.00
71778;BME280;59609;52.430;4.668;2022-10-16T07:32:23;101309.50;;;13.67;100.00
71778;BME280;59609;52.430;4.668;2022-10-16T07:34:51;101314.88;;;13.60;100.00
71778;BME280;59609;52.430;4.668;2022-10-16T07:37:16;101310.56;;;13.50;100.00
71778;BME280;59609;52.430;4.668;2022-10-16T07:39:41;101320.59;;;13.51;100.00
71778;BME280;59609;52.430;4.668;2022-10-16T07:42:06;101327.50;;;13.55;100.00
71778;BME280;59609;52.430;4.668;2022-10-16T07:44:32;101342.56;;;13.60;100.00
71778;BME280;59609;52.430;4.668;2022-10-16T07:46:58;101334.25;;;13.60;100.00
71778;BME280;59609;52.430;4.668;2022-10-16T07:49:24;101339.78;;;13.68;100.00
71778;BME280;59609;52.430;4.668;2022-10-16T07:51:49;101343.56;;;13.83;100.00
71778;BME280;59609;52.430;4.668;2022-10-16T07:54:15;101351.66;;;14.09;100.00
71778;BME280;59609;52.430;4.668;2022-10-16T07:56:40;101354.91;;;14.21;100.00
71778;BME280;59609;52.430;4.668;2022-10-16T07:59:05;101355.25;;;14.34;100.00
71778;BME280;59609;52.430;4.668;2022-10-16T08:01:31;101354.19;;;14.35;100.00
71778;BME280;59609;52.430;4.668;2022-10-16T08:03:56;101364.09;;;14.37;100.00
71778;BME280;59609;52.430;4.668;2022-10-16T08:06:22;101370.09;;;14.41;100.00
71778;BME280;59609;52.430;4.668;2022-10-16T08:08:48;101370.13;;;14.25;100.00
71778;BME280;59609;52.430;4.668;2022-10-16T08:11:14;101361.50;;;14.12;100.00
71778;BME280;59609;52.430;4.668;2022-10-16T08:13:40;101373.97;;;14.24;100.00
71778;BME280;59609;52.430;4.668;2022-10-16T08:16:06;101385.41;;;14.21;100.00
71778;BME280;59609;52.430;4.668;2022-10-16T08:18:34;101384.13;;;14.31;100.00
71778;BME280;59609;52.430;4.668;2022-10-16T08:21:01;101383.88;;;14.65;100.00
71778;BME280;59609;52.430;4.668;2022-10-16T08:23:27;101394.97;;;15.04;100.00
71778;BME280;59609;52.430;4.668;2022-10-16T08:26:00;101394.91;;;15.12;100.00
71778;BME280;59609;52.430;4.668;2022-10-16T08:28:27;101395.94;;;15.11;100.00
71778;BME280;59609;52.430;4.668;2022-10-16T08:30:52;101400.44;;;14.81;100.00
71778;BME280;59609;52.430;4.668;2022-10-16T08:33:18;101405.41;;;14.55;100.00
71778;BME280;59609;52.430;4.668;2022-10-16T08:35:50;101414.97;;;14.44;100.00
71778;BME280;59609;52.430;4.668;2022-10-16T08:38:16;101415.63;;;14.55;99.11
71778;BME280;59609;52.430;4.668;2022-10-16T08:40:42;101421.47;;;14.68;96.97
71778;BME280;59609;52.430;4.668;2022-10-16T08:43:23;101430.13;;;14.73;93.90
71778;BME280;59609;52.430;4.668;2022-10-16T08:51:01;101442.63;;;14.69;86.96
71778;BME280;59609;52.430;4.668;2022-10-16T08:53:31;101453.78;;;14.61;86.65
71778;BME280;59609;52.430;4.668;2022-10-16T08:55:59;101455.16;;;14.57;82.92
71778;BME280;59609;52.430;4.668;2022-10-16T08:58:29;101465.03;;;14.51;83.70
71778;BME280;59609;52.430;4.668;2022-10-16T09:00:58;101463.56;;;14.87;80.93
71778;BME280;59609;52.430;4.668;2022-10-16T09:11:49;101474.94;;;15.62;73.81
71778;BME280;59609;52.430;4.668;2022-10-16T09:16:51;101475.56;;;15.72;72.77
71778;BME280;59609;52.430;4.668;2022-10-16T09:19:24;101487.78;;;15.86;71.47
71778;BME280;59609;52.430;4.668;2022-10-16T09:21:52;101488.78;;;15.93;72.72
71778;BME280;59609;52.430;4.668;2022-10-16T09:24:21;101493.03;;;16.04;72.19
71778;BME280;59609;52.430;4.668;2022-10-16T09:26:49;101498.34;;;16.13;72.31
71778;BME280;59609;52.430;4.668;2022-10-16T09:29:15;101497.22;;;16.22;72.18
71778;BME280;59609;52.430;4.668;2022-10-16T09:31:42;101488.44;;;16.33;72.14
71778;BME280;59609;52.430;4.668;2022-10-16T09:34:20;101506.00;;;16.48;71.70
71778;BME280;59609;52.430;4.668;2022-10-16T09:36:50;101500.75;;;16.54;71.28
71778;BME280;59609;52.430;4.668;2022-10-16T09:39:15;101508.78;;;16.48;70.20
71778;BME280;59609;52.430;4.668;2022-10-16T09:41:43;101505.81;;;16.50;71.00
71778;BME280;59609;52.430;4.668;2022-10-16T09:44:27;101510.41;;;16.43;70.62
71778;BME280;59609;52.430;4.668;2022-10-16T09:47:04;101510.69;;;16.48;69.59
71778;BME280;59609;52.430;4.668;2022-10-16T09:49:29;101510.97;;;16.61;70.21
71778;BME280;59609;52.430;4.668;2022-10-16T09:52:14;101503.84;;;16.88;69.31
71778;BME280;59609;52.430;4.668;2022-10-16T09:54:57;101510.00;;;16.69;68.46
71778;BME280;59609;52.430;4.668;2022-10-16T09:57:24;101503.16;;;16.71;66.59
71778;BME280;59609;52.430;4.668;2022-10-16T09:59:57;101506.63;;;16.73;66.51
71778;BME280;59609;52.430;4.668;2022-10-16T10:02:36;101520.56;;;16.73;67.53
71778;BME280;59609;52.430;4.668;2022-10-16T10:05:05;101512.47;;;16.78;67.57
71778;BME280;59609;52.430;4.668;2022-10-16T10:07:33;101528.13;;;16.79;67.95
71778;BME280;59609;52.430;4.668;2022-10-16T10:10:03;101528.53;;;17.06;66.69
71778;BME280;59609;52.430;4.668;2022-10-16T10:12:31;101521.13;;;17.27;66.76
71778;BME280;59609;52.430;4.668;2022-10-16T10:15:12;101531.56;;;17.40;66.61
71778;BME280;59609;52.430;4.668;2022-10-16T10:17:53;101535.00;;;17.42;64.94
71778;BME280;59609;52.430;4.668;2022-10-16T10:22:47;101545.97;;;17.29;66.64
71778;BME280;59609;52.430;4.668;2022-10-16T10:25:19;101550.22;;;17.25;67.05
71778;BME280;59609;52.430;4.668;2022-10-16T10:36:02;101578.28;;;17.88;63.05
71778;BME280;59609;52.430;4.668;2022-10-16T10:38:31;101574.94;;;17.78;62.67
71778;BME280;59609;52.430;4.668;2022-10-16T10:41:29;101574.25;;;18.12;64.10
71778;BME280;59609;52.430;4.668;2022-10-16T10:44:03;101590.78;;;17.92;64.96
71778;BME280;59609;52.430;4.668;2022-10-16T10:46:41;101589.81;;;17.64;65.52
71778;BME280;59609;52.430;4.668;2022-10-16T10:52:12;101591.31;;;17.67;64.44
71778;BME280;59609;52.430;4.668;2022-10-16T10:55:10;101598.31;;;17.48;65.54
71778;BME280;59609;52.430;4.668;2022-10-16T11:05:49;101608.88;;;17.82;62.01
71778;BME280;59609;52.430;4.668;2022-10-16T11:08:33;101605.75;;;17.70;61.92
71778;BME280;59609;52.430;4.668;2022-10-16T11:11:09;101612.44;;;17.90;62.18
71778;BME280;59609;52.430;4.668;2022-10-16T11:13:54;101614.13;;;17.91;62.47
71778;BME280;59609;52.430;4.668;2022-10-16T11:16:27;101613.13;;;17.78;64.39
71778;BME280;59609;52.430;4.668;2022-10-16T11:19:13;101617.63;;;18.15;62.77
71778;BME280;59609;52.430;4.668;2022-10-16T11:21:56;101616.06;;;18.90;61.78
71778;BME280;59609;52.430;4.668;2022-10-16T11:27:23;101612.34;;;19.80;59.18
71778;BME280;59609;52.430;4.668;2022-10-16T11:29:57;101626.66;;;19.29;58.39
71778;BME280;59609;52.430;4.668;2022-10-16T11:32:35;101624.22;;;19.20;58.85
71778;BME280;59609;52.430;4.668;2022-10-16T11:35:08;101636.03;;;18.66;58.92
71778;BME280;59609;52.430;4.668;2022-10-16T11:37:46;101641.72;;;18.37;59.74
71778;BME280;59609;52.430;4.668;2022-10-16T11:40:25;101637.28;;;18.64;61.03
71778;BME280;59609;52.430;4.668;2022-10-16T11:43:06;101630.44;;;18.66;61.17
71778;BME280;59609;52.430;4.668;2022-10-16T11:45:45;101638.16;;;18.64;61.87
71778;BME280;59609;52.430;4.668;2022-10-16T11:55:42;101648.22;;;18.08;61.99
71778;BME280;59609;52.430;4.668;2022-10-16T12:03:34;101652.66;;;18.17;61.86
71778;BME280;59609;52.430;4.668;2022-10-16T12:06:26;101657.38;;;18.17;62.10
71778;BME280;59609;52.430;4.668;2022-10-16T12:08:55;101651.03;;;18.08;62.50
71778;BME280;59609;52.430;4.668;2022-10-16T12:11:35;101662.00;;;18.10;62.85
71778;BME280;59609;52.430;4.668;2022-10-16T12:14:22;101659.13;;;18.03;61.05
71778;BME280;59609;52.430;4.668;2022-10-16T12:17:00;101660.41;;;18.22;61.54
71778;BME280;59609;52.430;4.668;2022-10-16T12:19:30;101663.91;;;18.09;61.45
71778;BME280;59609;52.430;4.668;2022-10-16T12:21:59;101671.66;;;18.28;62.11
71778;BME280;59609;52.430;4.668;2022-10-16T12:24:39;101675.44;;;18.42;61.44
71778;BME280;59609;52.430;4.668;2022-10-16T12:27:29;101666.91;;;18.43;60.65
71778;BME280;59609;52.430;4.668;2022-10-16T12:30:05;101678.69;;;18.60;60.15
71778;BME280;59609;52.430;4.668;2022-10-16T12:32:38;101667.13;;;18.84;60.60
71778;BME280;59609;52.430;4.668;2022-10-16T12:35:05;101672.47;;;19.35;59.96
71778;BME280;59609;52.430;4.668;2022-10-16T12:37:41;101663.25;;;19.34;57.19
71778;BME280;59609;52.430;4.668;2022-10-16T12:42:49;101661.06;;;19.58;55.23
71778;BME280;59609;52.430;4.668;2022-10-16T12:45:27;101667.59;;;19.71;56.01
71778;BME280;59609;52.430;4.668;2022-10-16T12:47:55;101676.44;;;19.75;56.85
71778;BME280;59609;52.430;4.668;2022-10-16T12:50:38;101681.53;;;19.65;56.60
71778;BME280;59609;52.430;4.668;2022-10-16T12:53:19;101683.91;;;19.40;57.53
71778;BME280;59609;52.430;4.668;2022-10-16T12:58:54;101678.53;;;19.11;58.17
71778;BME280;59609;52.430;4.668;2022-10-16T13:01:40;101683.38;;;19.02;57.75
71778;BME280;59609;52.430;4.668;2022-10-16T13:20:02;101692.88;;;18.44;59.33
71778;BME280;59609;52.430;4.668;2022-10-16T13:23:01;101691.53;;;18.40;59.64
71778;BME280;59609;52.430;4.668;2022-10-16T13:28:13;101703.00;;;17.94;60.50
71778;BME280;59609;52.430;4.668;2022-10-16T13:30:41;101710.13;;;17.68;60.65
71778;BME280;59609;52.430;4.668;2022-10-16T13:33:38;101703.56;;;17.75;59.78
71778;BME280;59609;52.430;4.668;2022-10-16T13:36:05;101712.16;;;17.74;59.34
71778;BME280;59609;52.430;4.668;2022-10-16T13:38:33;101735.50;;;17.35;60.69
71778;BME280;59609;52.430;4.668;2022-10-16T13:43:35;101733.69;;;17.05;61.97
71778;BME280;59609;52.430;4.668;2022-10-16T13:46:19;101733.69;;;17.05;62.43
71778;BME280;59609;52.430;4.668;2022-10-16T13:48:59;101730.69;;;16.92;63.00
71778;BME280;59609;52.430;4.668;2022-10-16T13:51:25;101735.25;;;16.85;63.48
71778;BME280;59609;52.430;4.668;2022-10-16T13:53:50;101732.91;;;16.96;64.23
71778;BME280;59609;52.430;4.668;2022-10-16T13:56:21;101738.94;;;17.23;64.55
71778;BME280;59609;52.430;4.668;2022-10-16T13:59:06;101737.09;;;17.15;64.92
71778;BME280;59609;52.430;4.668;2022-10-16T14:01:43;101726.22;;;17.06;65.61
71778;BME280;59609;52.430;4.668;2022-10-16T14:04:11;101734.31;;;17.15;66.14
71778;BME280;59609;52.430;4.668;2022-10-16T14:06:41;101744.97;;;17.12;65.33
71778;BME280;59609;52.430;4.668;2022-10-16T14:11:48;101751.03;;;17.15;65.05
71778;BME280;59609;52.430;4.668;2022-10-16T14:14:14;101746.44;;;17.22;64.86
71778;BME280;59609;52.430;4.668;2022-10-16T14:16:42;101747.13;;;17.02;65.50
71778;BME280;59609;52.430;4.668;2022-10-16T14:19:26;101745.94;;;17.19;66.35
71778;BME280;59609;52.430;4.668;2022-10-16T14:21:53;101735.38;;;17.14;66.02
71778;BME280;59609;52.430;4.668;2022-10-16T14:24:47;101736.31;;;17.07;66.28
71778;BME280;59609;52.430;4.668;2022-10-16T14:27:34;101739.88;;;17.15;66.60
71778;BME280;59609;52.430;4.668;2022-10-16T14:30:21;101731.72;;;17.14;65.92
71778;BME280;59609;52.430;4.668;2022-10-16T14:33:05;101745.31;;;16.94;64.96
71778;BME280;59609;52.430;4.668;2022-10-16T14:35:33;101740.34;;;16.81;64.34
71778;BME280;59609;52.430;4.668;2022-10-16T14:38:01;101741.69;;;16.85;65.48